createdAt,value
2018-02-24T00:00:12.972Z,0.00
2018-02-24T00:01:12.918Z,0.00
2018-02-24T00:02:12.908Z,0.00
2018-02-24T00:03:12.896Z,0.00
2018-02-24T00:04:12.885Z,0.00
2018-02-24T00:05:12.972Z,0.00
2018-02-24T00:06:12.862Z,0.00
2018-02-24T00:07:12.849Z,0.00
2018-02-24T00:08:12.839Z,0.00
2018-02-24T00:09:12.827Z,0.00
2018-02-24T00:10:12.860Z,0.00
2018-02-24T00:11:12.804Z,0.00
2018-02-24T00:12:12.794Z,0.00
2018-02-24T00:13:12.781Z,0.00
2018-02-24T00:14:12.770Z,0.00
2018-02-24T00:15:12.858Z,0.00
2018-02-24T00:16:12.746Z,0.00
2018-02-24T00:17:12.734Z,0.00
2018-02-24T00:18:12.724Z,0.00
2018-02-24T00:19:12.711Z,0.00
2018-02-24T00:20:12.741Z,0.00
2018-02-24T00:21:12.749Z,0.00
2018-02-24T00:22:12.677Z,0.00
2018-02-24T00:23:12.663Z,0.00
2018-02-24T00:24:12.654Z,0.00
2018-02-24T00:25:13.325Z,0.00
2018-02-24T00:26:12.667Z,0.00
2018-02-24T00:27:12.621Z,0.00
2018-02-24T00:28:12.608Z,0.00
2018-02-24T00:29:12.598Z,0.00
2018-02-24T00:30:12.913Z,0.00
2018-02-24T00:31:12.617Z,0.00
2018-02-24T00:32:12.562Z,0.00
2018-02-24T00:33:12.550Z,0.00
2018-02-24T00:34:12.537Z,0.00
2018-02-24T00:35:12.525Z,0.00
2018-02-24T00:36:12.557Z,0.00
2018-02-24T00:37:12.504Z,0.00
2018-02-24T00:38:12.490Z,0.00
2018-02-24T00:39:12.479Z,0.00
2018-02-24T00:40:12.468Z,0.00
2018-02-24T00:41:12.504Z,0.00
2018-02-24T00:42:12.466Z,0.00
2018-02-24T00:43:12.435Z,0.00
2018-02-24T00:44:12.419Z,0.00
2018-02-24T00:45:12.447Z,0.00
2018-02-24T00:46:12.396Z,0.00
2018-02-24T00:47:12.385Z,0.00
2018-02-24T00:48:12.376Z,0.00
2018-02-24T00:49:12.361Z,0.00
2018-02-24T00:50:12.391Z,0.00
2018-02-24T00:51:12.339Z,0.00
2018-02-24T00:52:12.329Z,0.00
2018-02-24T00:53:12.315Z,0.00
2018-02-24T00:54:12.303Z,0.00
2018-02-24T00:55:12.327Z,0.00
2018-02-24T00:56:12.280Z,0.00
2018-02-24T00:57:12.267Z,0.00
2018-02-24T00:58:12.256Z,0.00
2018-02-24T00:59:12.245Z,0.00
2018-02-24T01:00:12.274Z,0.00
2018-02-24T01:01:12.226Z,0.00
2018-02-24T01:02:12.208Z,0.00
2018-02-24T01:03:12.195Z,0.00
2018-02-24T01:04:12.186Z,0.00
2018-02-24T01:05:12.213Z,0.00
2018-02-24T01:06:12.163Z,0.00
2018-02-24T01:07:12.149Z,0.00
2018-02-24T01:08:12.138Z,0.00
2018-02-24T01:09:12.819Z,0.00
2018-02-24T01:10:12.154Z,0.00
2018-02-24T01:11:12.114Z,0.00
2018-02-24T01:12:12.092Z,0.00
2018-02-24T01:13:12.082Z,0.00
2018-02-24T01:14:12.065Z,0.00
2018-02-24T01:15:12.110Z,0.00
2018-02-24T01:16:12.046Z,0.00
2018-02-24T01:17:12.035Z,0.00
2018-02-24T01:18:12.020Z,0.00
2018-02-24T01:19:12.010Z,0.00
2018-02-24T01:20:11.998Z,0.00
2018-02-24T01:21:12.026Z,0.00
2018-02-24T01:22:11.976Z,0.00
2018-02-24T01:23:11.965Z,0.00
2018-02-24T01:24:12.818Z,0.00
2018-02-24T01:25:11.981Z,0.00
2018-02-24T01:26:11.930Z,0.00
2018-02-24T01:27:11.916Z,0.00
2018-02-24T01:28:11.909Z,0.00
2018-02-24T01:29:11.899Z,0.00
2018-02-24T01:30:11.920Z,0.00
2018-02-24T01:31:11.870Z,0.00
2018-02-24T01:32:11.860Z,0.00
2018-02-24T01:33:11.865Z,0.00
2018-02-24T01:34:11.839Z,0.00
2018-02-24T01:35:11.866Z,0.00
2018-02-24T01:36:11.812Z,0.00
2018-02-24T01:37:11.803Z,0.00
2018-02-24T01:38:11.789Z,0.00
2018-02-24T01:39:11.778Z,0.00
2018-02-24T01:40:11.803Z,0.00
2018-02-24T01:41:11.753Z,0.00
2018-02-24T01:42:11.745Z,0.00
2018-02-24T01:43:11.731Z,0.00
2018-02-24T01:44:11.719Z,0.00
2018-02-24T01:45:11.770Z,0.00
2018-02-24T01:46:11.698Z,0.00
2018-02-24T01:47:11.683Z,0.00
2018-02-24T01:48:11.672Z,0.00
2018-02-24T01:49:11.661Z,0.00
2018-02-24T01:50:11.708Z,0.00
2018-02-24T01:51:11.639Z,0.00
2018-02-24T01:52:11.623Z,0.00
2018-02-24T01:53:11.615Z,0.00
2018-02-24T01:54:11.606Z,0.00
2018-02-24T01:55:11.648Z,0.00
2018-02-24T01:56:11.638Z,0.00
2018-02-24T01:57:11.572Z,0.00
2018-02-24T01:58:11.557Z,0.00
2018-02-24T01:59:11.550Z,0.00
2018-02-24T02:00:11.593Z,0.00
2018-02-24T02:01:11.517Z,0.00
2018-02-24T02:02:11.511Z,0.00
2018-02-24T02:03:11.497Z,0.00
2018-02-24T02:04:11.487Z,0.00
2018-02-24T02:05:11.512Z,0.00
2018-02-24T02:06:11.459Z,0.00
2018-02-24T02:07:11.448Z,0.00
2018-02-24T02:08:11.438Z,0.00
2018-02-24T02:09:11.434Z,0.00
2018-02-24T02:10:11.456Z,0.00
2018-02-24T02:11:11.406Z,0.00
2018-02-24T02:12:11.398Z,0.00
2018-02-24T02:13:11.381Z,0.00
2018-02-24T02:14:11.800Z,0.00
2018-02-24T02:15:11.356Z,0.00
2018-02-24T02:16:11.347Z,0.00
2018-02-24T02:17:11.333Z,0.00
2018-02-24T02:18:12.230Z,0.00
2018-02-24T02:19:11.349Z,0.00
2018-02-24T02:20:11.296Z,0.00
2018-02-24T02:21:11.286Z,0.00
2018-02-24T02:22:11.273Z,0.00
2018-02-24T02:23:11.263Z,0.00
2018-02-24T02:24:11.301Z,0.00
2018-02-24T02:25:11.238Z,0.00
2018-02-24T02:26:11.227Z,0.00
2018-02-24T02:27:11.212Z,0.00
2018-02-24T02:28:11.204Z,0.00
2018-02-24T02:29:11.196Z,0.00
2018-02-24T02:30:11.234Z,0.00
2018-02-24T02:31:11.171Z,0.00
2018-02-24T02:32:11.161Z,0.00
2018-02-24T02:33:11.146Z,0.00
2018-02-24T02:34:11.133Z,0.00
2018-02-24T02:35:11.160Z,0.00
2018-02-24T02:36:11.110Z,0.00
2018-02-24T02:37:11.099Z,0.00
2018-02-24T02:38:11.087Z,0.00
2018-02-24T02:39:11.079Z,0.00
2018-02-24T02:40:11.118Z,0.00
2018-02-24T02:41:11.056Z,0.00
2018-02-24T02:42:11.040Z,0.00
2018-02-24T02:43:11.030Z,0.00
2018-02-24T02:44:11.016Z,0.00
2018-02-24T02:45:11.049Z,0.00
2018-02-24T02:46:10.994Z,0.00
2018-02-24T02:47:10.982Z,0.00
2018-02-24T02:48:10.972Z,0.00
2018-02-24T02:49:10.957Z,0.00
2018-02-24T02:50:10.989Z,0.00
2018-02-24T02:51:10.935Z,0.00
2018-02-24T02:52:10.926Z,0.00
2018-02-24T02:53:10.910Z,0.00
2018-02-24T02:54:11.811Z,0.00
2018-02-24T02:55:10.933Z,0.00
2018-02-24T02:56:10.876Z,0.00
2018-02-24T02:57:10.864Z,0.00
2018-02-24T02:58:10.851Z,0.00
2018-02-24T02:59:10.842Z,0.00
2018-02-24T03:00:10.884Z,0.00
2018-02-24T03:01:10.817Z,0.00
2018-02-24T03:02:10.804Z,0.00
2018-02-24T03:03:10.794Z,0.00
2018-02-24T03:04:10.783Z,0.00
2018-02-24T03:05:10.810Z,0.00
2018-02-24T03:06:10.756Z,0.00
2018-02-24T03:07:10.741Z,0.00
2018-02-24T03:08:10.735Z,0.00
2018-02-24T03:09:10.722Z,0.00
2018-02-24T03:10:10.799Z,0.00
2018-02-24T03:11:10.697Z,0.00
2018-02-24T03:12:10.689Z,0.00
2018-02-24T03:13:10.688Z,0.00
2018-02-24T03:14:10.661Z,0.00
2018-02-24T03:15:10.707Z,0.00
2018-02-24T03:16:10.641Z,0.00
2018-02-24T03:17:10.629Z,0.00
2018-02-24T03:18:10.612Z,0.00
2018-02-24T03:19:10.602Z,0.00
2018-02-24T03:20:10.647Z,0.00
2018-02-24T03:21:10.578Z,0.00
2018-02-24T03:22:10.564Z,0.00
2018-02-24T03:23:10.555Z,0.00
2018-02-24T03:24:11.304Z,0.00
2018-02-24T03:25:10.578Z,0.00
2018-02-24T03:26:10.559Z,0.00
2018-02-24T03:27:10.508Z,0.00
2018-02-24T03:28:10.492Z,0.00
2018-02-24T03:29:10.480Z,0.00
2018-02-24T03:30:10.469Z,0.00
2018-02-24T03:31:10.496Z,0.00
2018-02-24T03:32:10.442Z,0.00
2018-02-24T03:33:10.433Z,0.00
2018-02-24T03:34:10.427Z,0.00
2018-02-24T03:35:10.410Z,0.00
2018-02-24T03:36:10.442Z,0.00
2018-02-24T03:37:10.383Z,0.00
2018-02-24T03:38:10.367Z,0.00
2018-02-24T03:39:10.360Z,0.00
2018-02-24T03:40:10.351Z,0.00
2018-02-24T03:41:10.380Z,0.00
2018-02-24T03:42:10.325Z,0.00
2018-02-24T03:43:10.311Z,0.00
2018-02-24T03:44:10.297Z,0.00
2018-02-24T03:45:10.288Z,0.00
2018-02-24T03:46:10.313Z,0.00
2018-02-24T03:47:10.260Z,0.00
2018-02-24T03:48:10.247Z,0.00
2018-02-24T03:49:10.237Z,0.00
2018-02-24T03:50:10.224Z,0.00
2018-02-24T03:51:10.251Z,0.00
2018-02-24T03:52:10.197Z,0.00
2018-02-24T03:53:10.185Z,0.00
2018-02-24T03:54:10.174Z,0.00
2018-02-24T03:55:10.161Z,0.00
2018-02-24T03:56:10.193Z,0.00
2018-02-24T03:57:10.154Z,0.00
2018-02-24T03:58:10.122Z,0.00
2018-02-24T03:59:10.116Z,0.00
2018-02-24T04:00:10.097Z,0.00
2018-02-24T04:01:10.124Z,0.00
2018-02-24T04:02:10.077Z,0.00
2018-02-24T04:03:10.060Z,0.00
2018-02-24T04:04:10.052Z,0.00
2018-02-24T04:05:10.080Z,0.00
2018-02-24T04:06:10.428Z,0.00
2018-02-24T04:07:10.016Z,0.00
2018-02-24T04:08:10.002Z,0.00
2018-02-24T04:09:09.987Z,0.00
2018-02-24T04:10:10.016Z,0.00
2018-02-24T04:11:09.963Z,0.00
2018-02-24T04:12:09.947Z,0.00
2018-02-24T04:13:09.939Z,0.00
2018-02-24T04:14:09.924Z,0.00
2018-02-24T04:15:09.969Z,0.00
2018-02-24T04:16:09.901Z,0.00
2018-02-24T04:17:09.888Z,0.00
2018-02-24T04:18:09.872Z,0.00
2018-02-24T04:19:09.861Z,0.00
2018-02-24T04:20:09.895Z,0.00
2018-02-24T04:21:09.840Z,0.00
2018-02-24T04:22:09.822Z,0.00
2018-02-24T04:23:09.813Z,0.00
2018-02-24T04:24:10.930Z,0.00
2018-02-24T04:25:09.809Z,0.00
2018-02-24T04:26:09.752Z,0.00
2018-02-24T04:27:09.743Z,0.00
2018-02-24T04:28:09.730Z,0.00
2018-02-24T04:29:09.717Z,0.00
2018-02-24T04:30:09.740Z,0.00
2018-02-24T04:31:09.692Z,0.00
2018-02-24T04:32:09.678Z,0.00
2018-02-24T04:33:09.668Z,0.00
2018-02-24T04:34:10.273Z,0.00
2018-02-24T04:35:09.684Z,0.00
2018-02-24T04:36:09.627Z,0.00
2018-02-24T04:37:09.616Z,0.00
2018-02-24T04:38:09.602Z,0.00
2018-02-24T04:39:09.589Z,0.00
2018-02-24T04:40:09.616Z,0.00
2018-02-24T04:41:09.565Z,0.00
2018-02-24T04:42:09.550Z,0.00
2018-02-24T04:43:09.542Z,0.00
2018-02-24T04:44:09.529Z,0.00
2018-02-24T04:45:09.559Z,0.00
2018-02-24T04:46:09.501Z,0.00
2018-02-24T04:47:09.491Z,0.00
2018-02-24T04:48:09.479Z,0.00
2018-02-24T04:49:09.463Z,0.00
2018-02-24T04:50:09.492Z,0.00
2018-02-24T04:51:09.438Z,0.00
2018-02-24T04:52:09.427Z,0.00
2018-02-24T04:53:09.413Z,0.00
2018-02-24T04:54:09.402Z,0.00
2018-02-24T04:55:09.429Z,0.00
2018-02-24T04:56:09.372Z,0.00
2018-02-24T04:57:09.365Z,0.00
2018-02-24T04:58:09.351Z,0.00
2018-02-24T04:59:09.338Z,0.00
2018-02-24T05:00:09.372Z,0.00
2018-02-24T05:01:09.311Z,0.00
2018-02-24T05:02:09.301Z,0.00
2018-02-24T05:03:09.296Z,0.00
2018-02-24T05:04:09.276Z,0.00
2018-02-24T05:05:09.302Z,0.00
2018-02-24T05:06:09.247Z,0.00
2018-02-24T05:07:09.235Z,0.00
2018-02-24T05:08:09.222Z,0.00
2018-02-24T05:09:09.207Z,0.00
2018-02-24T05:10:09.236Z,0.00
2018-02-24T05:11:09.182Z,0.00
2018-02-24T05:12:09.181Z,0.00
2018-02-24T05:13:09.159Z,0.00
2018-02-24T05:14:09.158Z,0.00
2018-02-24T05:15:09.190Z,0.00
2018-02-24T05:16:09.121Z,0.00
2018-02-24T05:17:09.111Z,0.00
2018-02-24T05:18:09.095Z,0.00
2018-02-24T05:19:09.121Z,0.00
2018-02-24T05:20:09.068Z,0.00
2018-02-24T05:21:09.058Z,0.00
2018-02-24T05:22:09.043Z,0.00
2018-02-24T05:23:09.034Z,0.00
2018-02-24T05:24:09.085Z,0.00
2018-02-24T05:25:09.004Z,0.00
2018-02-24T05:26:08.993Z,0.00
2018-02-24T05:27:08.978Z,0.00
2018-02-24T05:28:08.966Z,0.00
2018-02-24T05:29:09.024Z,0.00
2018-02-24T05:30:08.941Z,0.00
2018-02-24T05:31:08.929Z,0.00
2018-02-24T05:32:09.768Z,4.00
2018-02-24T05:33:08.900Z,4.00
2018-02-24T05:34:08.939Z,0.00
2018-02-24T05:35:08.876Z,4.00
2018-02-24T05:36:08.864Z,4.00
2018-02-24T05:37:08.857Z,4.00
2018-02-24T05:38:08.836Z,4.00
2018-02-24T05:39:08.861Z,4.00
2018-02-24T05:40:08.811Z,4.00
2018-02-24T05:41:08.799Z,8.00
2018-02-24T05:42:08.788Z,12.00
2018-02-24T05:43:08.769Z,12.00
2018-02-24T05:44:08.817Z,16.00
2018-02-24T05:45:08.746Z,16.00
2018-02-24T05:46:08.734Z,24.00
2018-02-24T05:47:08.722Z,24.00
2018-02-24T05:48:09.682Z,28.00
2018-02-24T05:49:08.738Z,36.00
2018-02-24T05:50:08.687Z,40.00
2018-02-24T05:51:08.671Z,48.00
2018-02-24T05:52:08.658Z,60.00
2018-02-24T05:53:08.648Z,68.00
2018-02-24T05:54:08.673Z,80.00
2018-02-24T05:55:08.618Z,96.00
2018-02-24T05:56:08.606Z,108.00
2018-02-24T05:57:08.598Z,128.00
2018-02-24T05:58:08.580Z,140.00
2018-02-24T05:59:08.625Z,164.00
2018-02-24T06:00:08.595Z,184.00
2018-02-24T06:01:08.542Z,212.00
2018-02-24T06:02:08.527Z,236.00
2018-02-24T06:03:08.523Z,268.00
2018-02-24T06:04:08.504Z,296.00
2018-02-24T06:05:08.531Z,336.00
2018-02-24T06:06:08.479Z,368.00
2018-02-24T06:07:08.472Z,408.00
2018-02-24T06:08:08.452Z,448.00
2018-02-24T06:09:08.441Z,492.00
2018-02-24T06:10:08.469Z,536.00
2018-02-24T06:11:08.415Z,584.00
2018-02-24T06:12:08.400Z,640.00
2018-02-24T06:13:08.388Z,688.00
2018-02-24T06:14:08.377Z,744.00
2018-02-24T06:15:08.402Z,800.00
2018-02-24T06:16:08.356Z,860.00
2018-02-24T06:17:09.008Z,920.00
2018-02-24T06:18:08.323Z,976.00
2018-02-24T06:19:08.308Z,1040.00
2018-02-24T06:20:08.338Z,1104.00
2018-02-24T06:21:08.284Z,1168.00
2018-02-24T06:22:08.269Z,1244.00
2018-02-24T06:23:08.260Z,1320.00
2018-02-24T06:24:08.243Z,1392.00
2018-02-24T06:25:08.292Z,1480.00
2018-02-24T06:26:08.222Z,1572.00
2018-02-24T06:27:08.209Z,1672.00
2018-02-24T06:28:08.194Z,1764.00
2018-02-24T06:29:08.226Z,1840.00
2018-02-24T06:30:08.168Z,1916.00
2018-02-24T06:31:08.198Z,1976.00
2018-02-24T06:32:08.143Z,2036.00
2018-02-24T06:33:08.134Z,2084.00
2018-02-24T06:34:08.120Z,2132.00
2018-02-24T06:35:08.164Z,2180.00
2018-02-24T06:36:08.099Z,2264.00
2018-02-24T06:37:08.077Z,2360.00
2018-02-24T06:38:08.068Z,2528.00
2018-02-24T06:39:08.093Z,2704.00
2018-02-24T06:40:08.045Z,2864.00
2018-02-24T06:41:08.078Z,2976.00
2018-02-24T06:42:08.015Z,3096.00
2018-02-24T06:43:08.001Z,3188.00
2018-02-24T06:44:07.993Z,3260.00
2018-02-24T06:45:08.022Z,3344.00
2018-02-24T06:46:07.966Z,3380.00
2018-02-24T06:47:07.957Z,3408.00
2018-02-24T06:48:07.940Z,3444.00
2018-02-24T06:49:07.928Z,3516.00
2018-02-24T06:50:07.961Z,3628.00
2018-02-24T06:51:07.904Z,3748.00
2018-02-24T06:52:07.893Z,3876.00
2018-02-24T06:53:07.881Z,4008.00
2018-02-24T06:54:07.867Z,4204.00
2018-02-24T06:55:07.900Z,4468.00
2018-02-24T06:56:07.846Z,4928.00
2018-02-24T06:57:07.843Z,5468.00
2018-02-24T06:58:07.823Z,5884.00
2018-02-24T06:59:07.810Z,6068.00
2018-02-24T07:00:07.856Z,6276.00
2018-02-24T07:01:07.793Z,6420.00
2018-02-24T07:02:07.777Z,6580.00
2018-02-24T07:03:07.769Z,6688.00
2018-02-24T07:04:07.794Z,6788.00
2018-02-24T07:05:07.787Z,6956.00
2018-02-24T07:06:07.754Z,7152.00
2018-02-24T07:07:07.725Z,7276.00
2018-02-24T07:08:07.713Z,7436.00
2018-02-24T07:09:07.707Z,7616.00
2018-02-24T07:10:08.683Z,7796.00
2018-02-24T07:11:07.696Z,7912.00
2018-02-24T07:12:07.680Z,8080.00
2018-02-24T07:13:07.673Z,8268.00
2018-02-24T07:14:07.665Z,8396.00
2018-02-24T07:15:07.695Z,8596.00
2018-02-24T07:16:07.646Z,8720.00
2018-02-24T07:17:07.638Z,8868.00
2018-02-24T07:18:07.647Z,9028.00
2018-02-24T07:19:07.624Z,9248.00
2018-02-24T07:20:07.658Z,9384.00
2018-02-24T07:21:07.611Z,9524.00
2018-02-24T07:22:07.600Z,9648.00
2018-02-24T07:23:07.600Z,9796.00
2018-02-24T07:24:07.590Z,9952.00
2018-02-24T07:25:07.636Z,10000.00
2018-02-24T07:26:07.574Z,10220.00
2018-02-24T07:27:07.574Z,10412.00
2018-02-24T07:28:07.565Z,10528.00
2018-02-24T07:29:07.558Z,10724.00
2018-02-24T07:30:07.599Z,10844.00
2018-02-24T07:31:07.550Z,11064.00
2018-02-24T07:32:07.539Z,11176.00
2018-02-24T07:33:07.534Z,11380.00
2018-02-24T07:34:07.527Z,11584.00
2018-02-24T07:35:07.566Z,11740.00
2018-02-24T07:36:07.518Z,12068.00
2018-02-24T07:37:07.512Z,12156.00
2018-02-24T07:38:07.513Z,12088.00
2018-02-24T07:39:07.504Z,12476.00
2018-02-24T07:40:07.549Z,12656.00
2018-02-24T07:41:07.494Z,12784.00
2018-02-24T07:42:07.488Z,13076.00
2018-02-24T07:43:07.488Z,13384.00
2018-02-24T07:44:07.485Z,13496.00
2018-02-24T07:45:07.518Z,13564.00
2018-02-24T07:46:07.470Z,13632.00
2018-02-24T07:47:07.471Z,13848.00
2018-02-24T07:48:07.468Z,13956.00
2018-02-24T07:49:07.459Z,14212.00
2018-02-24T07:50:07.497Z,14440.00
2018-02-24T07:51:07.454Z,14648.00
2018-02-24T07:52:07.448Z,14824.00
2018-02-24T07:53:07.449Z,14900.00
2018-02-24T07:54:07.441Z,15176.00
2018-02-24T07:55:08.179Z,15504.00
2018-02-24T07:56:07.435Z,15644.00
2018-02-24T07:57:07.431Z,15844.00
2018-02-24T07:58:07.426Z,16208.00
2018-02-24T07:59:07.425Z,16388.00
2018-02-24T08:00:07.420Z,16672.00
2018-02-24T08:01:07.470Z,16864.00
2018-02-24T08:02:07.421Z,17152.00
2018-02-24T08:03:07.412Z,17344.00
2018-02-24T08:04:07.415Z,17568.00
2018-02-24T08:05:07.420Z,17760.00
2018-02-24T08:06:07.464Z,17792.00
2018-02-24T08:07:07.406Z,18048.00
2018-02-24T08:08:07.401Z,18592.00
2018-02-24T08:09:07.441Z,18688.00
2018-02-24T08:10:07.398Z,18656.00
2018-02-24T08:11:07.397Z,19552.00
2018-02-24T08:12:07.436Z,19776.00
2018-02-24T08:13:07.394Z,19840.00
2018-02-24T08:14:07.388Z,20768.00
2018-02-24T08:15:07.390Z,18560.00
2018-02-24T08:16:07.389Z,21632.00
2018-02-24T08:17:07.434Z,22080.00
2018-02-24T08:18:07.385Z,23008.00
2018-02-24T08:19:07.382Z,20800.00
2018-02-24T08:20:07.381Z,22080.00
2018-02-24T08:21:07.436Z,24416.00
2018-02-24T08:22:07.375Z,19904.00
2018-02-24T08:23:07.376Z,17952.00
2018-02-24T08:24:07.412Z,18784.00
2018-02-24T08:25:07.493Z,16660.00
2018-02-24T08:26:07.371Z,16392.00
2018-02-24T08:27:07.416Z,18624.00
2018-02-24T08:28:07.367Z,17824.00
2018-02-24T08:29:07.370Z,15012.00
2018-02-24T08:30:07.360Z,14740.00
2018-02-24T08:31:07.359Z,14700.00
2018-02-24T08:32:07.409Z,15724.00
2018-02-24T08:33:07.355Z,16368.00
2018-02-24T08:34:07.385Z,14732.00
2018-02-24T08:35:07.346Z,13876.00
2018-02-24T08:36:07.338Z,16748.00
2018-02-24T08:37:07.375Z,16532.00
2018-02-24T08:38:07.330Z,15256.00
2018-02-24T08:39:07.327Z,13612.00
2018-02-24T08:40:07.321Z,11536.00
2018-02-24T08:41:07.318Z,10136.00
2018-02-24T08:42:07.350Z,9600.00
2018-02-24T08:43:07.309Z,9968.00
2018-02-24T08:44:07.304Z,10048.00
2018-02-24T08:45:07.296Z,8628.00
2018-02-24T08:46:07.290Z,7844.00
2018-02-24T08:47:07.341Z,7692.00
2018-02-24T08:48:07.278Z,7864.00
2018-02-24T08:49:07.316Z,8228.00
2018-02-24T08:50:07.266Z,8716.00
2018-02-24T08:51:07.959Z,8964.00
2018-02-24T08:52:07.295Z,9148.00
2018-02-24T08:53:07.249Z,8280.00
2018-02-24T08:54:07.237Z,7300.00
2018-02-24T08:55:07.231Z,7408.00
2018-02-24T08:56:07.226Z,7980.00
2018-02-24T08:57:07.274Z,8796.00
2018-02-24T08:58:07.215Z,10076.00
2018-02-24T08:59:07.205Z,10612.00
2018-02-24T09:00:07.198Z,10924.00
2018-02-24T09:01:07.192Z,12124.00
2018-02-24T09:02:07.190Z,12540.00
2018-02-24T09:03:07.221Z,12528.00
2018-02-24T09:04:07.169Z,11972.00
2018-02-24T09:05:07.163Z,11136.00
2018-02-24T09:06:07.155Z,11400.00
2018-02-24T09:07:07.189Z,12112.00
2018-02-24T09:08:07.151Z,11764.00
2018-02-24T09:09:07.127Z,12272.00
2018-02-24T09:10:07.129Z,13540.00
2018-02-24T09:11:07.142Z,13820.00
2018-02-24T09:12:07.148Z,11900.00
2018-02-24T09:13:07.128Z,10344.00
2018-02-24T09:14:07.097Z,10724.00
2018-02-24T09:15:07.084Z,11412.00
2018-02-24T09:16:07.080Z,12772.00
2018-02-24T09:17:07.108Z,13268.00
2018-02-24T09:18:07.063Z,12456.00
2018-02-24T09:19:07.065Z,10984.00
2018-02-24T09:20:07.047Z,11100.00
2018-02-24T09:21:07.040Z,12012.00
2018-02-24T09:22:07.095Z,12084.00
2018-02-24T09:23:07.067Z,12748.00
2018-02-24T09:24:07.016Z,12328.00
2018-02-24T09:25:07.017Z,11676.00
2018-02-24T09:26:07.002Z,11212.00
2018-02-24T09:27:07.053Z,10464.00
2018-02-24T09:28:07.029Z,10212.00
2018-02-24T09:29:06.985Z,12008.00
2018-02-24T09:30:06.972Z,13700.00
2018-02-24T09:31:06.965Z,14176.00
2018-02-24T09:32:06.996Z,12984.00
2018-02-24T09:33:06.947Z,11472.00
2018-02-24T09:34:06.944Z,12404.00
2018-02-24T09:35:06.942Z,13372.00
2018-02-24T09:36:06.941Z,12824.00
2018-02-24T09:37:06.965Z,12628.00
2018-02-24T09:38:06.916Z,12004.00
2018-02-24T09:39:06.905Z,13188.00
2018-02-24T09:40:06.905Z,14236.00
2018-02-24T09:41:06.890Z,14944.00
2018-02-24T09:42:06.919Z,16420.00
2018-02-24T09:43:06.875Z,17728.00
2018-02-24T09:44:06.865Z,17632.00
2018-02-24T09:45:06.858Z,15932.00
2018-02-24T09:46:06.850Z,15352.00
2018-02-24T09:47:06.880Z,16652.00
2018-02-24T09:48:06.836Z,16212.00
2018-02-24T09:49:06.833Z,16308.00
2018-02-24T09:50:06.821Z,18720.00
2018-02-24T09:51:06.814Z,18912.00
2018-02-24T09:52:06.851Z,18752.00
2018-02-24T09:53:06.803Z,20736.00
2018-02-24T09:54:06.791Z,20576.00
2018-02-24T09:55:06.790Z,19424.00
2018-02-24T09:56:06.780Z,20512.00
2018-02-24T09:57:06.817Z,21472.00
2018-02-24T09:58:06.764Z,20960.00
2018-02-24T09:59:06.760Z,21504.00
2018-02-24T10:00:06.752Z,25152.00
2018-02-24T10:01:06.794Z,27744.00
2018-02-24T10:02:06.735Z,28864.00
2018-02-24T10:03:06.734Z,26592.00
2018-02-24T10:04:06.738Z,25888.00
2018-02-24T10:05:06.718Z,24416.00
2018-02-24T10:06:06.780Z,23456.00
2018-02-24T10:07:06.716Z,25184.00
2018-02-24T10:08:06.703Z,23264.00
2018-02-24T10:09:06.697Z,22720.00
2018-02-24T10:10:06.690Z,23456.00
2018-02-24T10:11:06.720Z,24768.00
2018-02-24T10:12:06.679Z,24768.00
2018-02-24T10:13:06.681Z,30752.00
2018-02-24T10:14:06.669Z,33088.00
2018-02-24T10:15:06.661Z,30208.00
2018-02-24T10:16:06.695Z,30176.00
2018-02-24T10:17:06.654Z,40320.00
2018-02-24T10:18:06.651Z,28960.00
2018-02-24T10:19:06.643Z,21920.00
2018-02-24T10:20:06.642Z,21984.00
2018-02-24T10:21:06.673Z,22176.00
2018-02-24T10:22:06.632Z,35456.00
2018-02-24T10:23:06.627Z,30400.00
2018-02-24T10:24:06.627Z,27136.00
2018-02-24T10:25:06.620Z,25280.00
2018-02-24T10:26:06.654Z,25152.00
2018-02-24T10:27:06.614Z,26592.00
2018-02-24T10:28:06.611Z,32416.00
2018-02-24T10:29:06.613Z,30720.00
2018-02-24T10:30:06.609Z,28512.00
2018-02-24T10:31:06.901Z,21152.00
2018-02-24T10:32:06.603Z,28064.00
2018-02-24T10:33:06.599Z,27872.00
2018-02-24T10:34:06.601Z,24192.00
2018-02-24T10:35:06.598Z,23968.00
2018-02-24T10:36:06.634Z,33248.00
2018-02-24T10:37:06.593Z,35008.00
2018-02-24T10:38:06.592Z,44416.00
2018-02-24T10:39:06.587Z,35648.00
2018-02-24T10:40:06.588Z,32000.00
2018-02-24T10:41:06.629Z,33760.00
2018-02-24T10:42:07.002Z,29056.00
2018-02-24T10:43:06.580Z,22336.00
2018-02-24T10:44:06.581Z,27648.00
2018-02-24T10:45:06.577Z,29088.00
2018-02-24T10:46:06.630Z,29536.00
2018-02-24T10:47:06.575Z,39328.00
2018-02-24T10:48:06.627Z,31136.00
2018-02-24T10:49:06.567Z,34848.00
2018-02-24T10:50:06.566Z,29856.00
2018-02-24T10:51:06.564Z,29344.00
2018-02-24T10:52:06.561Z,27744.00
2018-02-24T10:53:06.595Z,31136.00
2018-02-24T10:54:06.555Z,38144.00
2018-02-24T10:55:06.554Z,32320.00
2018-02-24T10:56:06.593Z,23808.00
2018-02-24T10:57:06.552Z,25376.00
2018-02-24T10:58:06.910Z,19904.00
2018-02-24T10:59:06.542Z,19520.00
2018-02-24T11:00:06.540Z,21888.00
2018-02-24T11:01:06.587Z,25472.00
2018-02-24T11:02:06.538Z,25568.00
2018-02-24T11:03:06.531Z,27040.00
2018-02-24T11:04:06.524Z,24576.00
2018-02-24T11:05:06.525Z,22400.00
2018-02-24T11:06:06.577Z,23232.00
2018-02-24T11:07:06.520Z,24256.00
2018-02-24T11:08:06.554Z,22464.00
2018-02-24T11:09:06.507Z,20352.00
2018-02-24T11:10:06.501Z,25824.00
2018-02-24T11:11:06.506Z,25408.00
2018-02-24T11:12:06.538Z,27680.00
2018-02-24T11:13:06.494Z,24192.00
2018-02-24T11:14:06.488Z,24192.00
2018-02-24T11:15:06.486Z,24960.00
2018-02-24T11:16:06.479Z,27584.00
2018-02-24T11:17:06.534Z,21472.00
2018-02-24T11:18:06.473Z,24416.00
2018-02-24T11:19:06.468Z,25056.00
2018-02-24T11:20:06.466Z,24768.00
2018-02-24T11:21:06.467Z,22656.00
2018-02-24T11:22:06.498Z,22912.00
2018-02-24T11:23:06.592Z,21184.00
2018-02-24T11:24:06.446Z,21312.00
2018-02-24T11:25:06.438Z,21728.00
2018-02-24T11:26:06.433Z,24352.00
2018-02-24T11:27:06.490Z,23968.00
2018-02-24T11:28:06.426Z,20416.00
2018-02-24T11:29:06.442Z,18880.00
2018-02-24T11:30:06.416Z,19328.00
2018-02-24T11:31:06.417Z,18976.00
2018-02-24T11:32:06.445Z,20736.00
2018-02-24T11:33:06.444Z,20672.00
2018-02-24T11:34:06.397Z,21408.00
2018-02-24T11:35:06.391Z,23424.00
2018-02-24T11:36:06.386Z,15216.00
2018-02-24T11:37:06.383Z,15312.00
2018-02-24T11:38:06.416Z,14072.00
2018-02-24T11:39:06.370Z,13364.00
2018-02-24T11:40:06.367Z,14416.00
2018-02-24T11:41:06.361Z,17532.00
2018-02-24T11:42:06.360Z,23232.00
2018-02-24T11:43:06.408Z,20512.00
2018-02-24T11:44:06.345Z,17856.00
2018-02-24T11:45:06.344Z,18304.00
2018-02-24T11:46:06.334Z,17920.00
2018-02-24T11:47:06.332Z,18240.00
2018-02-24T11:48:06.362Z,72256.00
2018-02-24T11:49:06.323Z,20224.00
2018-02-24T11:50:06.376Z,75808.00
2018-02-24T11:51:06.311Z,19808.00
2018-02-24T11:52:06.310Z,36672.00
2018-02-24T11:53:06.372Z,68224.00
2018-02-24T11:54:06.305Z,19776.00
2018-02-24T11:55:06.301Z,17172.00
2018-02-24T11:56:06.300Z,31040.00
2018-02-24T11:57:06.295Z,16696.00
2018-02-24T11:58:06.332Z,36544.00
2018-02-24T11:59:06.295Z,60864.00
2018-02-24T12:00:06.287Z,64032.00
2018-02-24T12:01:06.287Z,33216.00
2018-02-24T12:02:06.285Z,59712.00
2018-02-24T12:03:06.322Z,53216.00
2018-02-24T12:04:06.286Z,49696.00
2018-02-24T12:05:06.288Z,49632.00
2018-02-24T12:06:06.288Z,48992.00
2018-02-24T12:07:06.285Z,50016.00
2018-02-24T12:08:06.326Z,52544.00
2018-02-24T12:09:06.288Z,57760.00
2018-02-24T12:10:06.293Z,61632.00
2018-02-24T12:11:06.300Z,61216.00
2018-02-24T12:12:06.302Z,56672.00
2018-02-24T12:13:06.360Z,54080.00
2018-02-24T12:14:06.363Z,50848.00
2018-02-24T12:15:06.311Z,46560.00
2018-02-24T12:16:06.317Z,43136.00
2018-02-24T12:17:06.361Z,42880.00
2018-02-24T12:18:06.366Z,46752.00
2018-02-24T12:19:06.332Z,34144.00
2018-02-24T12:20:06.337Z,14836.00
2018-02-24T12:21:06.353Z,14040.00
2018-02-24T12:22:06.349Z,68544.00
2018-02-24T12:23:06.397Z,61152.00
2018-02-24T12:24:06.358Z,54016.00
2018-02-24T12:25:06.365Z,51616.00
2018-02-24T12:26:06.369Z,52576.00
2018-02-24T12:27:06.427Z,54688.00
2018-02-24T12:28:06.418Z,54368.00
2018-02-24T12:29:06.386Z,57856.00